createdAt,value
2023-02-13T00:00:42.780Z,7.50
2023-02-13T00:03:09.786Z,7.50
2023-02-13T00:05:37.239Z,7.50
2023-02-13T00:08:04.361Z,7.60
2023-02-13T00:10:31.386Z,7.60
2023-02-13T00:12:58.257Z,7.50
2023-02-13T00:15:25.237Z,7.50
2023-02-13T00:17:52.385Z,7.50
2023-02-13T00:20:19.497Z,7.50
2023-02-13T00:22:46.443Z,7.50
2023-02-13T00:25:13.440Z,7.50
2023-02-13T00:27:40.273Z,7.50
2023-02-13T00:30:07.801Z,7.50
2023-02-13T00:32:34.773Z,7.50
2023-02-13T00:35:02.095Z,7.50
2023-02-13T00:37:29.054Z,7.50
2023-02-13T00:39:56.420Z,7.50
2023-02-13T00:42:26.490Z,7.50
2023-02-13T00:44:54.440Z,7.50
2023-02-13T00:47:21.768Z,7.40
2023-02-13T00:49:48.944Z,7.40
2023-02-13T00:52:15.848Z,7.50
2023-02-13T00:54:43.028Z,7.40
2023-02-13T00:57:09.981Z,7.50
2023-02-13T00:59:36.977Z,7.50
2023-02-13T01:02:03.962Z,7.50
2023-02-13T01:04:30.881Z,7.50
2023-02-13T01:06:58.048Z,7.50
2023-02-13T01:09:25.579Z,7.40
2023-02-13T01:11:52.731Z,7.40
2023-02-13T01:14:19.741Z,7.40
2023-02-13T01:16:46.851Z,7.40
2023-02-13T01:19:13.739Z,7.40
2023-02-13T01:21:40.712Z,7.40
2023-02-13T01:24:07.802Z,7.50
2023-02-13T01:26:34.650Z,7.50
2023-02-13T01:29:02.232Z,7.50
2023-02-13T01:31:29.327Z,7.40
2023-02-13T01:33:58.134Z,7.50
2023-02-13T01:36:25.933Z,7.50
2023-02-13T01:38:55.386Z,7.50
2023-02-13T01:41:23.635Z,7.50
2023-02-13T01:43:56.051Z,7.40
2023-02-13T01:46:28.839Z,7.40
2023-02-13T01:49:01.926Z,7.40
2023-02-13T01:51:34.387Z,7.40
2023-02-13T01:54:07.741Z,7.40
2023-02-13T01:56:41.397Z,7.40
2023-02-13T01:59:25.395Z,7.40
2023-02-13T02:01:53.018Z,7.40
2023-02-13T02:04:32.876Z,7.40
2023-02-13T02:07:04.605Z,7.30
2023-02-13T02:09:37.487Z,7.30
2023-02-13T02:12:10.687Z,7.30
2023-02-13T02:14:38.947Z,7.40
2023-02-13T02:17:06.006Z,7.40
2023-02-13T02:19:54.816Z,7.30
2023-02-13T02:22:59.195Z,7.30
2023-02-13T02:26:08.398Z,7.30
2023-02-13T02:29:10.314Z,7.30
2023-02-13T02:32:02.280Z,7.30
2023-02-13T02:34:51.864Z,7.30
2023-02-13T02:37:34.880Z,7.40
2023-02-13T02:40:32.976Z,7.30
2023-02-13T02:43:11.945Z,7.30
2023-02-13T02:45:49.588Z,7.30
2023-02-13T02:48:54.202Z,7.30
2023-02-13T02:52:05.171Z,7.30
2023-02-13T02:55:09.571Z,7.30
2023-02-13T02:58:03.749Z,7.30
2023-02-13T03:00:53.915Z,7.20
2023-02-13T03:03:42.674Z,7.20
2023-02-13T03:06:44.542Z,7.20
2023-02-13T03:09:34.440Z,7.20
2023-02-13T03:12:21.710Z,7.20
2023-02-13T03:14:49.085Z,7.20
2023-02-13T03:17:36.897Z,7.20
2023-02-13T03:20:38.210Z,7.20
2023-02-13T03:23:36.105Z,7.20
2023-02-13T03:26:33.333Z,7.20
2023-02-13T03:29:54.849Z,7.10
2023-02-13T03:32:41.918Z,7.10
2023-02-13T03:35:27.350Z,7.10
2023-02-13T03:38:02.205Z,7.10
2023-02-13T03:41:15.702Z,7.00
2023-02-13T03:44:08.610Z,7.00
2023-02-13T03:46:40.267Z,7.00
2023-02-13T03:49:43.548Z,7.00
2023-02-13T03:52:22.181Z,7.00
2023-02-13T03:55:22.770Z,7.00
2023-02-13T03:58:11.570Z,7.00
2023-02-13T04:00:45.128Z,7.00
2023-02-13T04:03:22.763Z,7.00
2023-02-13T04:05:58.424Z,7.00
2023-02-13T04:08:25.715Z,7.00
2023-02-13T04:11:25.950Z,7.00
2023-02-13T04:14:02.047Z,7.10
2023-02-13T04:16:41.763Z,7.00
2023-02-13T04:19:10.175Z,7.00
2023-02-13T04:21:40.264Z,7.00
2023-02-13T04:24:08.164Z,6.90
2023-02-13T04:26:46.033Z,7.00
2023-02-13T04:29:12.911Z,7.00
2023-02-13T04:31:40.567Z,7.00
2023-02-13T04:34:07.633Z,7.00
2023-02-13T04:36:34.712Z,6.90
2023-02-13T04:39:01.780Z,6.90
2023-02-13T04:41:28.700Z,6.90
2023-02-13T04:43:55.650Z,7.00
2023-02-13T04:46:22.572Z,6.90
2023-02-13T04:48:49.631Z,6.90
2023-02-13T04:51:16.801Z,7.00
2023-02-13T04:53:44.070Z,6.90
2023-02-13T04:56:11.344Z,6.90
2023-02-13T04:58:38.204Z,6.90
2023-02-13T05:01:14.728Z,7.00
2023-02-13T05:03:42.183Z,6.90
2023-02-13T05:06:09.531Z,6.90
2023-02-13T05:08:36.619Z,6.90
2023-02-13T05:11:03.732Z,6.90
2023-02-13T05:13:30.994Z,6.90
2023-02-13T05:16:01.066Z,6.90
2023-02-13T05:18:31.227Z,6.90
2023-02-13T05:21:17.132Z,6.90
2023-02-13T05:23:44.162Z,6.90
2023-02-13T05:26:11.422Z,6.90
2023-02-13T05:28:57.187Z,6.90
2023-02-13T05:31:24.395Z,6.90
2023-02-13T05:33:51.431Z,6.90
2023-02-13T05:36:18.563Z,6.80
2023-02-13T05:38:49.045Z,6.80
2023-02-13T05:41:16.243Z,6.80
2023-02-13T05:43:43.266Z,6.80
2023-02-13T05:46:13.754Z,6.80
2023-02-13T05:48:43.599Z,6.90
2023-02-13T05:51:12.933Z,6.90
2023-02-13T05:53:39.981Z,6.90
2023-02-13T05:56:07.312Z,6.80
2023-02-13T05:58:35.289Z,6.90
2023-02-13T06:01:02.331Z,6.80
2023-02-13T06:03:30.726Z,6.80
2023-02-13T06:05:58.470Z,6.80
2023-02-13T06:08:26.435Z,6.80
2023-02-13T06:10:53.559Z,6.80
2023-02-13T06:13:20.523Z,6.80
2023-02-13T06:15:48.146Z,6.80
2023-02-13T06:18:15.232Z,6.80
2023-02-13T06:20:42.478Z,6.80
2023-02-13T06:23:09.850Z,6.80
2023-02-13T06:25:37.623Z,6.80
2023-02-13T06:28:05.728Z,6.80
2023-02-13T06:30:33.069Z,6.80
2023-02-13T06:33:00.429Z,6.80
2023-02-13T06:35:28.018Z,6.80
2023-02-13T06:37:54.994Z,6.80
2023-02-13T06:40:22.054Z,6.80
2023-02-13T06:42:49.019Z,6.70
2023-02-13T06:45:16.203Z,6.70
2023-02-13T06:47:48.521Z,6.80
2023-02-13T06:50:18.109Z,6.80
2023-02-13T06:52:50.542Z,6.80
2023-02-13T06:55:18.214Z,6.80
2023-02-13T06:57:45.480Z,6.80
2023-02-13T07:00:14.909Z,6.90
2023-02-13T07:02:43.232Z,6.90
2023-02-13T07:05:11.559Z,6.90
2023-02-13T07:07:40.651Z,6.80
2023-02-13T07:10:11.728Z,6.80
2023-02-13T07:12:39.433Z,6.90
2023-02-13T07:15:08.126Z,6.80
2023-02-13T07:17:35.128Z,6.90
2023-02-13T07:20:02.110Z,6.90
2023-02-13T07:22:30.524Z,6.90
2023-02-13T07:24:58.957Z,6.90
2023-02-13T07:27:26.403Z,6.90
2023-02-13T07:29:53.318Z,6.90
2023-02-13T07:32:20.075Z,6.90
2023-02-13T07:35:00.841Z,7.00
2023-02-13T07:37:30.238Z,6.90
2023-02-13T07:39:57.281Z,6.90
2023-02-13T07:42:24.325Z,7.00
2023-02-13T07:44:51.543Z,7.00
2023-02-13T07:47:20.062Z,7.10
2023-02-13T07:49:47.123Z,7.10
2023-02-13T07:52:14.276Z,7.00
2023-02-13T07:54:47.542Z,7.00
2023-02-13T07:57:16.107Z,7.10
2023-02-13T07:59:43.349Z,7.10
2023-02-13T08:02:14.941Z,7.10
2023-02-13T08:04:46.239Z,7.10
2023-02-13T08:07:15.034Z,7.10
2023-02-13T08:10:02.782Z,7.10
2023-02-13T08:12:30.543Z,7.10
2023-02-13T08:14:58.952Z,7.10
2023-02-13T08:17:25.834Z,7.00
2023-02-13T08:19:52.850Z,7.10
2023-02-13T08:22:19.747Z,7.10
2023-02-13T08:24:46.902Z,7.20
2023-02-13T08:27:14.767Z,7.20
2023-02-13T08:29:41.930Z,7.20
2023-02-13T08:32:08.895Z,7.20
2023-02-13T08:34:35.818Z,7.30
2023-02-13T08:37:03.741Z,7.20
2023-02-13T08:39:30.827Z,7.30
2023-02-13T08:41:57.924Z,7.10
2023-02-13T08:44:24.973Z,7.20
2023-02-13T08:46:52.029Z,7.20
2023-02-13T08:49:19.339Z,7.20
2023-02-13T08:51:46.237Z,7.30
2023-02-13T08:54:13.506Z,7.30
2023-02-13T08:56:40.619Z,7.30
2023-02-13T08:59:07.585Z,7.30
2023-02-13T09:01:34.879Z,7.40
2023-02-13T09:04:01.924Z,7.60
2023-02-13T09:06:28.769Z,7.70
2023-02-13T09:08:55.891Z,7.80
2023-02-13T09:11:23.689Z,7.80
2023-02-13T09:13:53.667Z,7.70
2023-02-13T09:16:21.387Z,7.90
2023-02-13T09:18:50.521Z,7.90
2023-02-13T09:21:18.772Z,7.90
2023-02-13T09:23:46.198Z,7.90
2023-02-13T09:26:15.694Z,7.90
2023-02-13T09:28:43.291Z,8.00
2023-02-13T09:31:15.289Z,8.00
2023-02-13T09:33:42.646Z,7.90
2023-02-13T09:36:12.358Z,8.10
2023-02-13T09:38:39.766Z,8.20
2023-02-13T09:41:14.295Z,8.20
2023-02-13T09:43:59.434Z,8.20
2023-02-13T09:46:33.866Z,8.20
2023-02-13T09:49:06.254Z,8.00
2023-02-13T09:51:33.168Z,8.10
2023-02-13T09:54:03.732Z,8.30
2023-02-13T09:57:03.063Z,8.30
2023-02-13T10:00:11.998Z,8.40
2023-02-13T10:02:51.013Z,8.40
2023-02-13T10:05:24.304Z,8.40
2023-02-13T10:07:58.022Z,8.50
2023-02-13T10:10:52.147Z,8.60
2023-02-13T10:13:27.833Z,8.60
2023-02-13T10:16:21.212Z,8.70
2023-02-13T10:19:14.743Z,8.80
2023-02-13T10:21:56.927Z,8.70
2023-02-13T10:24:32.799Z,8.70
2023-02-13T10:27:05.312Z,8.70
2023-02-13T10:30:07.131Z,8.90
2023-02-13T10:33:11.398Z,8.40
2023-02-13T10:35:39.673Z,8.40
2023-02-13T10:38:20.568Z,8.50
2023-02-13T10:41:05.430Z,8.30
2023-02-13T10:44:21.400Z,8.60
2023-02-13T10:47:06.541Z,8.80
2023-02-13T10:50:02.099Z,8.70
2023-02-13T10:52:52.666Z,8.60
2023-02-13T10:55:58.181Z,8.80
2023-02-13T10:58:35.624Z,8.70
2023-02-13T11:01:18.841Z,8.80
2023-02-13T11:03:48.063Z,8.40
2023-02-13T11:06:18.059Z,8.70
2023-02-13T11:08:47.844Z,8.90
2023-02-13T11:11:40.972Z,8.90
2023-02-13T11:14:14.331Z,8.70
2023-02-13T11:16:56.135Z,8.60
2023-02-13T11:19:32.514Z,8.50
2023-02-13T11:22:14.654Z,8.70
2023-02-13T11:24:50.849Z,8.70
2023-02-13T11:27:37.128Z,8.50
2023-02-13T11:30:28.351Z,8.50
2023-02-13T11:33:01.212Z,8.60
2023-02-13T11:35:31.968Z,8.60
2023-02-13T11:38:11.348Z,9.10
2023-02-13T11:40:39.231Z,8.90
2023-02-13T11:43:08.045Z,9.00
2023-02-13T11:45:35.430Z,9.00
2023-02-13T11:48:17.460Z,8.80
2023-02-13T11:50:50.929Z,9.10
2023-02-13T11:53:23.607Z,8.70
2023-02-13T11:56:07.744Z,8.60
2023-02-13T11:58:35.049Z,8.60
2023-02-13T12:01:20.598Z,8.60
2023-02-13T12:04:07.808Z,8.70
2023-02-13T12:06:40.064Z,8.60
2023-02-13T12:09:15.883Z,8.60
2023-02-13T12:11:45.450Z,8.60
2023-02-13T12:14:21.311Z,8.50
2023-02-13T12:17:19.085Z,8.30
2023-02-13T12:19:55.481Z,8.20
2023-02-13T12:22:35.352Z,8.40
2023-02-13T12:25:24.429Z,8.30
2023-02-13T12:27:51.227Z,8.60
2023-02-13T12:30:36.234Z,8.80
2023-02-13T12:33:27.873Z,8.90
2023-02-13T12:36:31.953Z,9.00
2023-02-13T12:39:30.711Z,8.70
2023-02-13T12:42:12.383Z,9.00
2023-02-13T12:45:02.655Z,9.20
2023-02-13T12:47:43.925Z,9.20
2023-02-13T12:50:16.741Z,9.40
2023-02-13T12:52:59.300Z,9.50
2023-02-13T12:55:38.184Z,9.00
2023-02-13T12:58:11.897Z,8.90
2023-02-13T13:00:56.503Z,8.70
2023-02-13T13:03:50.533Z,8.60
2023-02-13T13:06:36.558Z,8.80
2023-02-13T13:09:12.748Z,8.60
2023-02-13T13:11:50.448Z,8.60
2023-02-13T13:14:40.528Z,8.40
2023-02-13T13:17:30.246Z,8.70
2023-02-13T13:20:34.648Z,8.60
2023-02-13T13:23:22.032Z,8.50
2023-02-13T13:26:06.227Z,8.50
2023-02-13T13:28:41.648Z,8.60
2023-02-13T13:31:10.492Z,8.60
2023-02-13T13:33:43.088Z,8.60
2023-02-13T13:36:22.249Z,8.60
2023-02-13T13:39:03.910Z,8.70
2023-02-13T13:41:47.710Z,8.70
2023-02-13T13:44:14.504Z,8.70
2023-02-13T13:47:07.366Z,8.60
2023-02-13T13:49:57.632Z,8.70
2023-02-13T13:52:39.704Z,8.80
2023-02-13T13:55:07.105Z,8.70
2023-02-13T13:58:01.454Z,8.80
2023-02-13T14:00:31.681Z,8.80
2023-02-13T14:02:58.548Z,8.60
2023-02-13T14:05:29.467Z,8.50
2023-02-13T14:08:24.927Z,8.40
2023-02-13T14:10:58.902Z,8.50
2023-02-13T14:13:40.451Z,8.50
2023-02-13T14:16:11.451Z,8.50
2023-02-13T14:18:44.438Z,8.50
2023-02-13T14:21:12.893Z,8.40
2023-02-13T14:23:42.964Z,8.50
2023-02-13T14:26:31.800Z,8.40
2023-02-13T14:29:10.665Z,8.50
2023-02-13T14:31:41.605Z,8.50
2023-02-13T14:34:11.581Z,8.40
2023-02-13T14:36:45.646Z,8.40
2023-02-13T14:39:32.969Z,8.30
2023-02-13T14:42:02.115Z,8.40
2023-02-13T14:44:50.021Z,8.40
2023-02-13T14:47:33.510Z,8.40
2023-02-13T14:50:03.733Z,8.40
2023-02-13T14:52:40.485Z,8.30
2023-02-13T14:55:15.333Z,8.30
2023-02-13T14:57:50.349Z,8.40
2023-02-13T15:00:23.506Z,8.40
2023-02-13T15:02:55.421Z,8.40
2023-02-13T15:05:27.334Z,8.40
2023-02-13T15:08:04.037Z,8.40
2023-02-13T15:10:47.307Z,8.40
2023-02-13T15:13:18.404Z,8.40
2023-02-13T15:15:52.281Z,8.30
2023-02-13T15:18:22.226Z,8.30
2023-02-13T15:20:49.890Z,8.30
2023-02-13T15:23:22.941Z,8.30
2023-02-13T15:25:57.040Z,8.30
2023-02-13T15:28:25.370Z,8.30
2023-02-13T15:31:07.166Z,8.30
2023-02-13T15:33:45.877Z,8.30
2023-02-13T15:36:20.938Z,8.20
2023-02-13T15:38:48.363Z,8.20
2023-02-13T15:41:20.152Z,8.20
2023-02-13T15:43:53.961Z,8.20
2023-02-13T15:46:33.613Z,8.10
2023-02-13T15:49:24.905Z,8.10
2023-02-13T15:52:03.549Z,8.00
2023-02-13T15:54:33.457Z,8.00
2023-02-13T15:57:06.865Z,7.90
2023-02-13T15:59:39.445Z,7.90
2023-02-13T16:02:47.883Z,7.90
2023-02-13T16:05:26.526Z,7.80
2023-02-13T16:08:04.012Z,7.80
2023-02-13T16:10:36.568Z,7.70
2023-02-13T16:13:06.523Z,7.60
2023-02-13T16:15:36.347Z,7.60
2023-02-13T16:18:06.387Z,7.60
2023-02-13T16:20:35.123Z,7.60
2023-02-13T16:23:17.280Z,7.50
2023-02-13T16:25:46.188Z,7.40
2023-02-13T16:28:21.096Z,7.40
2023-02-13T16:31:14.539Z,7.50
2023-02-13T16:33:42.373Z,7.30
2023-02-13T16:36:09.486Z,7.30
2023-02-13T16:38:46.435Z,7.20
2023-02-13T16:41:19.560Z,7.10
2023-02-13T16:43:48.624Z,7.20
2023-02-13T16:46:15.641Z,7.10
2023-02-13T16:48:44.199Z,7.10
2023-02-13T16:51:11.669Z,7.00
2023-02-13T16:53:39.827Z,7.00
2023-02-13T16:56:09.338Z,7.00
2023-02-13T16:58:37.414Z,7.00
2023-02-13T17:01:05.832Z,6.80
2023-02-13T17:03:33.565Z,6.80
2023-02-13T17:06:03.528Z,6.80
2023-02-13T17:08:33.162Z,6.80
2023-02-13T17:11:05.814Z,6.70
2023-02-13T17:13:33.771Z,6.70
2023-02-13T17:16:01.032Z,6.60
2023-02-13T17:18:28.064Z,6.60
2023-02-13T17:20:55.637Z,6.60
2023-02-13T17:23:25.218Z,6.50
2023-02-13T17:25:53.914Z,6.50
2023-02-13T17:28:24.366Z,6.50
2023-02-13T17:30:54.401Z,6.30
2023-02-13T17:33:30.246Z,6.40
2023-02-13T17:35:57.485Z,6.40
2023-02-13T17:38:25.923Z,6.40
2023-02-13T17:40:53.087Z,6.30
2023-02-13T17:43:21.223Z,6.30
2023-02-13T17:45:49.888Z,6.20
2023-02-13T17:48:17.555Z,6.20
2023-02-13T17:50:44.805Z,6.10
2023-02-13T17:53:27.289Z,6.00
2023-02-13T17:55:54.687Z,6.00
2023-02-13T17:58:21.910Z,6.10
2023-02-13T18:00:49.774Z,6.00
2023-02-13T18:03:17.018Z,6.00
2023-02-13T18:05:48.572Z,5.90
2023-02-13T18:08:15.829Z,5.80
2023-02-13T18:10:42.838Z,5.80
2023-02-13T18:13:09.652Z,5.70
2023-02-13T18:15:41.437Z,5.70
2023-02-13T18:18:08.912Z,5.70
2023-02-13T18:20:36.251Z,5.80
2023-02-13T18:23:03.304Z,5.70
2023-02-13T18:25:30.376Z,5.70
2023-02-13T18:27:57.332Z,5.70
2023-02-13T18:30:24.979Z,5.70
2023-02-13T18:32:53.862Z,5.60
2023-02-13T18:35:22.183Z,5.70
2023-02-13T18:37:49.045Z,5.70
2023-02-13T18:40:17.626Z,5.60
2023-02-13T18:42:44.720Z,5.50
2023-02-13T18:45:12.387Z,5.60
2023-02-13T18:47:39.360Z,5.40
2023-02-13T18:50:06.881Z,5.30
2023-02-13T18:52:34.473Z,5.30
2023-02-13T18:55:01.472Z,5.30
2023-02-13T18:57:28.306Z,5.20
2023-02-13T18:59:55.222Z,5.30
2023-02-13T19:02:22.174Z,5.20
2023-02-13T19:04:49.056Z,5.10
2023-02-13T19:07:15.925Z,5.10
2023-02-13T19:09:44.400Z,5.20
2023-02-13T19:12:11.462Z,5.10
2023-02-13T19:14:39.804Z,5.00
2023-02-13T19:17:08.546Z,5.00
2023-02-13T19:19:35.405Z,5.20
2023-02-13T19:22:03.085Z,5.20
2023-02-13T19:24:30.045Z,5.20
2023-02-13T19:26:56.959Z,5.10
2023-02-13T19:31:51.264Z,5.10
2023-02-13T19:34:18.113Z,5.10
2023-02-13T19:36:44.950Z,5.10
2023-02-13T19:39:11.932Z,5.00
2023-02-13T19:41:41.299Z,5.00
2023-02-13T19:44:09.015Z,4.90
2023-02-13T19:46:37.159Z,4.90
2023-02-13T19:49:04.676Z,4.90
2023-02-13T19:51:33.473Z,4.80
2023-02-13T19:54:08.305Z,4.80
2023-02-13T19:56:39.560Z,4.70
2023-02-13T19:59:10.645Z,4.70
2023-02-13T20:01:37.990Z,4.60
2023-02-13T20:04:05.019Z,4.70
2023-02-13T20:06:38.167Z,4.60
2023-02-13T20:09:12.161Z,4.50
2023-02-13T20:11:41.022Z,4.60
2023-02-13T20:14:11.656Z,4.50
2023-02-13T20:16:38.896Z,4.50
2023-02-13T20:19:11.841Z,4.50
2023-02-13T20:21:41.031Z,4.50
2023-02-13T20:24:08.843Z,4.60
2023-02-13T20:26:36.217Z,4.60
2023-02-13T20:29:03.335Z,4.50
2023-02-13T20:31:34.525Z,4.40
2023-02-13T20:34:01.718Z,4.30
2023-02-13T20:36:31.688Z,4.30
2023-02-13T20:39:01.149Z,4.20
2023-02-13T20:41:30.740Z,4.10
2023-02-13T20:44:02.228Z,4.10
2023-02-13T20:46:34.850Z,4.10
2023-02-13T20:49:07.028Z,4.10
2023-02-13T20:51:34.827Z,4.10
2023-02-13T20:54:02.530Z,4.10
2023-02-13T20:56:34.125Z,4.10
2023-02-13T20:59:02.591Z,4.20
2023-02-13T21:01:40.606Z,4.20
2023-02-13T21:04:11.342Z,4.20
2023-02-13T21:06:38.803Z,4.20
2023-02-13T21:09:11.934Z,4.10
2023-02-13T21:11:42.996Z,4.10
2023-02-13T21:14:16.495Z,4.10
2023-02-13T21:16:44.183Z,4.00
2023-02-13T21:19:17.268Z,3.90
2023-02-13T21:21:45.102Z,4.00
2023-02-13T21:24:22.949Z,3.90
2023-02-13T21:26:55.271Z,3.90
2023-02-13T21:29:22.313Z,3.80
2023-02-13T21:31:49.969Z,3.70
2023-02-13T21:34:17.996Z,3.70
2023-02-13T21:36:45.838Z,3.70
2023-02-13T21:39:13.874Z,3.60
2023-02-13T21:41:42.346Z,3.50
2023-02-13T21:44:14.297Z,3.50
2023-02-13T21:46:42.745Z,3.50
2023-02-13T21:49:13.520Z,3.50
2023-02-13T21:51:40.928Z,3.40
2023-02-13T21:54:07.862Z,3.40
2023-02-13T21:56:38.291Z,3.40
2023-02-13T21:59:05.831Z,3.40
2023-02-13T22:01:35.830Z,3.40
2023-02-13T22:04:05.676Z,3.40
2023-02-13T22:06:34.865Z,3.30
2023-02-13T22:09:14.745Z,3.30
2023-02-13T22:11:42.420Z,3.20
2023-02-13T22:14:13.514Z,3.20
2023-02-13T22:16:41.037Z,3.20
2023-02-13T22:19:08.239Z,3.10
2023-02-13T22:21:36.388Z,3.20
2023-02-13T22:24:03.758Z,3.10
2023-02-13T22:26:35.678Z,3.10
2023-02-13T22:29:08.305Z,3.10
2023-02-13T22:31:36.269Z,3.10
2023-02-13T22:34:06.233Z,3.10
2023-02-13T22:36:41.093Z,3.00
2023-02-13T22:39:09.738Z,3.00
2023-02-13T22:41:37.058Z,3.00
2023-02-13T22:44:04.273Z,3.00
2023-02-13T22:46:33.492Z,3.00
2023-02-13T22:49:01.413Z,3.00
2023-02-13T22:51:31.588Z,3.00
2023-02-13T22:53:59.418Z,2.90
2023-02-13T22:56:27.969Z,3.00
2023-02-13T22:58:54.805Z,3.10
2023-02-13T23:01:23.917Z,3.20
2023-02-13T23:03:51.576Z,3.10
2023-02-13T23:06:19.627Z,3.10
2023-02-13T23:08:49.186Z,3.00
2023-02-13T23:11:36.023Z,2.90
2023-02-13T23:14:03.251Z,2.90
2023-02-13T23:16:53.166Z,2.90
2023-02-13T23:19:21.033Z,2.80
2023-02-13T23:21:48.213Z,2.80
2023-02-13T23:24:15.480Z,2.80
2023-02-13T23:26:42.529Z,2.70
2023-02-13T23:29:09.601Z,2.70
2023-02-13T23:31:36.687Z,2.80
2023-02-13T23:34:04.086Z,2.70
2023-02-13T23:36:31.299Z,2.70
2023-02-13T23:38:58.037Z,2.70
2023-02-13T23:41:24.985Z,2.70
2023-02-13T23:43:51.810Z,2.70
2023-02-13T23:46:18.693Z,2.90
2023-02-13T23:48:46.055Z,2.90
2023-02-13T23:51:13.103Z,3.00
2023-02-13T23:53:40.038Z,3.00
2023-02-13T23:56:07.425Z,2.80
2023-02-13T23:58:34.270Z,2.80
